Weather at Big Bear City Airport

Public forecast

Using degrees Fahrenheit for public forecast. Weather courtesy of forecast.io.

Current aviation weather report (METAR) for Big Bear City Airport

Retrieved UTC (0 seconds ago):

Closest aviation forecast (TAF) to Big Bear City Airport

Closest forecast is San Bernardino International Airport, 21.4 nm (39.6 km) WSW. Retrieved 2020/11/25 12:34 UTC (3 minutes ago):

TAF KSBD 251132Z 2512/2612 VRB03KT P6SM SKC FM252200 23008KT P6SM SKC FM260300 VRB03KT P6SM SKC FM260900 VRB03KT 5SM HZ BKN020